sensor_id;sensor_type;location;lat;lon;timestamp;P1;durP1;ratioP1;P2;durP2;ratioP2
81150;SDS011;70629;-26.026;27.976;2023-06-19T00:01:50;15.68;;;10.05;;
81150;SDS011;70629;-26.026;27.976;2023-06-19T00:04:20;14.52;;;11.35;;
81150;SDS011;70629;-26.026;27.976;2023-06-19T00:06:49;13.80;;;9.43;;
81150;SDS011;70629;-26.026;27.976;2023-06-19T00:09:18;13.40;;;9.88;;
81150;SDS011;70629;-26.026;27.976;2023-06-19T00:11:48;14.65;;;10.10;;
81150;SDS011;70629;-26.026;27.976;2023-06-19T00:14:17;16.90;;;10.80;;
81150;SDS011;70629;-26.026;27.976;2023-06-19T00:16:46;12.52;;;9.32;;
81150;SDS011;70629;-26.026;27.976;2023-06-19T00:19:16;13.57;;;10.18;;
81150;SDS011;70629;-26.026;27.976;2023-06-19T00:21:46;13.07;;;9.38;;
81150;SDS011;70629;-26.026;27.976;2023-06-19T00:24:15;14.05;;;9.80;;
81150;SDS011;70629;-26.026;27.976;2023-06-19T00:26:44;13.10;;;9.88;;
81150;SDS011;70629;-26.026;27.976;2023-06-19T00:29:13;12.85;;;8.88;;
81150;SDS011;70629;-26.026;27.976;2023-06-19T00:31:43;11.60;;;9.50;;
81150;SDS011;70629;-26.026;27.976;2023-06-19T00:34:12;10.30;;;8.82;;
81150;SDS011;70629;-26.026;27.976;2023-06-19T00:36:41;11.77;;;9.23;;
81150;SDS011;70629;-26.026;27.976;2023-06-19T00:39:10;11.43;;;8.25;;
81150;SDS011;70629;-26.026;27.976;2023-06-19T00:41:39;12.10;;;8.85;;
81150;SDS011;70629;-26.026;27.976;2023-06-19T00:44:11;10.13;;;8.30;;
81150;SDS011;70629;-26.026;27.976;2023-06-19T00:46:40;12.05;;;8.93;;
81150;SDS011;70629;-26.026;27.976;2023-06-19T00:49:09;12.18;;;9.13;;
81150;SDS011;70629;-26.026;27.976;2023-06-19T00:51:38;15.05;;;9.30;;
81150;SDS011;70629;-26.026;27.976;2023-06-19T00:54:08;13.23;;;9.73;;
81150;SDS011;70629;-26.026;27.976;2023-06-19T00:56:38;10.90;;;8.68;;
81150;SDS011;70629;-26.026;27.976;2023-06-19T00:59:20;13.15;;;9.43;;
81150;SDS011;70629;-26.026;27.976;2023-06-19T01:01:51;13.25;;;9.02;;
81150;SDS011;70629;-26.026;27.976;2023-06-19T01:04:26;11.00;;;8.80;;
81150;SDS011;70629;-26.026;27.976;2023-06-19T01:07:06;11.25;;;8.40;;
81150;SDS011;70629;-26.026;27.976;2023-06-19T01:09:46;13.02;;;9.50;;
81150;SDS011;70629;-26.026;27.976;2023-06-19T01:12:20;12.50;;;8.20;;
81150;SDS011;70629;-26.026;27.976;2023-06-19T01:15:00;13.32;;;8.85;;
81150;SDS011;70629;-26.026;27.976;2023-06-19T01:17:32;12.88;;;9.40;;
81150;SDS011;70629;-26.026;27.976;2023-06-19T01:20:01;10.25;;;9.15;;
81150;SDS011;70629;-26.026;27.976;2023-06-19T01:22:39;14.40;;;10.23;;
81150;SDS011;70629;-26.026;27.976;2023-06-19T01:25:11;12.73;;;9.10;;
81150;SDS011;70629;-26.026;27.976;2023-06-19T01:27:43;15.20;;;10.05;;
81150;SDS011;70629;-26.026;27.976;2023-06-19T01:30:13;11.77;;;9.38;;
81150;SDS011;70629;-26.026;27.976;2023-06-19T01:35:43;13.05;;;9.50;;
81150;SDS011;70629;-26.026;27.976;2023-06-19T01:38:15;14.75;;;10.25;;
81150;SDS011;70629;-26.026;27.976;2023-06-19T01:40:46;19.73;;;11.77;;
81150;SDS011;70629;-26.026;27.976;2023-06-19T01:43:17;16.10;;;12.70;;
81150;SDS011;70629;-26.026;27.976;2023-06-19T01:45:47;16.65;;;11.25;;
81150;SDS011;70629;-26.026;27.976;2023-06-19T01:48:16;15.60;;;10.60;;
81150;SDS011;70629;-26.026;27.976;2023-06-19T01:50:46;14.00;;;10.43;;
81150;SDS011;70629;-26.026;27.976;2023-06-19T01:53:16;13.60;;;10.27;;
81150;SDS011;70629;-26.026;27.976;2023-06-19T01:55:45;13.48;;;10.32;;
81150;SDS011;70629;-26.026;27.976;2023-06-19T01:58:14;14.05;;;9.50;;
81150;SDS011;70629;-26.026;27.976;2023-06-19T02:00:43;12.15;;;9.68;;
81150;SDS011;70629;-26.026;27.976;2023-06-19T02:03:13;12.57;;;8.68;;
81150;SDS011;70629;-26.026;27.976;2023-06-19T02:05:42;14.13;;;9.88;;
81150;SDS011;70629;-26.026;27.976;2023-06-19T02:08:11;12.98;;;9.07;;
81150;SDS011;70629;-26.026;27.976;2023-06-19T02:10:41;13.85;;;9.90;;
81150;SDS011;70629;-26.026;27.976;2023-06-19T02:13:10;16.90;;;10.60;;
81150;SDS011;70629;-26.026;27.976;2023-06-19T02:15:40;17.60;;;12.52;;
81150;SDS011;70629;-26.026;27.976;2023-06-19T02:18:09;22.02;;;12.80;;
81150;SDS011;70629;-26.026;27.976;2023-06-19T02:20:38;24.77;;;14.32;;
81150;SDS011;70629;-26.026;27.976;2023-06-19T02:23:08;21.10;;;12.68;;
81150;SDS011;70629;-26.026;27.976;2023-06-19T02:25:37;21.77;;;13.10;;
81150;SDS011;70629;-26.026;27.976;2023-06-19T02:28:06;20.38;;;12.55;;
81150;SDS011;70629;-26.026;27.976;2023-06-19T02:30:36;30.58;;;17.25;;
81150;SDS011;70629;-26.026;27.976;2023-06-19T02:33:05;30.92;;;16.75;;
81150;SDS011;70629;-26.026;27.976;2023-06-19T02:35:34;30.27;;;17.70;;
81150;SDS011;70629;-26.026;27.976;2023-06-19T02:38:03;28.13;;;17.83;;
81150;SDS011;70629;-26.026;27.976;2023-06-19T02:40:32;25.35;;;14.02;;
81150;SDS011;70629;-26.026;27.976;2023-06-19T02:43:01;20.63;;;12.75;;
81150;SDS011;70629;-26.026;27.976;2023-06-19T02:45:30;16.92;;;12.43;;
81150;SDS011;70629;-26.026;27.976;2023-06-19T02:48:00;15.05;;;9.77;;
81150;SDS011;70629;-26.026;27.976;2023-06-19T02:50:29;14.73;;;10.15;;
81150;SDS011;70629;-26.026;27.976;2023-06-19T02:52:58;15.05;;;10.45;;
81150;SDS011;70629;-26.026;27.976;2023-06-19T02:55:27;18.08;;;11.65;;
81150;SDS011;70629;-26.026;27.976;2023-06-19T02:57:56;13.02;;;10.00;;
81150;SDS011;70629;-26.026;27.976;2023-06-19T03:00:25;17.10;;;9.77;;
81150;SDS011;70629;-26.026;27.976;2023-06-19T03:02:56;16.63;;;10.57;;
81150;SDS011;70629;-26.026;27.976;2023-06-19T03:05:26;10.88;;;8.70;;
81150;SDS011;70629;-26.026;27.976;2023-06-19T03:07:58;16.38;;;10.77;;
81150;SDS011;70629;-26.026;27.976;2023-06-19T03:10:27;13.00;;;8.90;;
81150;SDS011;70629;-26.026;27.976;2023-06-19T03:12:56;9.98;;;8.93;;
81150;SDS011;70629;-26.026;27.976;2023-06-19T03:15:26;11.60;;;7.95;;
81150;SDS011;70629;-26.026;27.976;2023-06-19T03:17:55;11.77;;;8.95;;
81150;SDS011;70629;-26.026;27.976;2023-06-19T03:20:24;8.73;;;6.90;;
81150;SDS011;70629;-26.026;27.976;2023-06-19T03:22:53;9.93;;;7.85;;
81150;SDS011;70629;-26.026;27.976;2023-06-19T03:25:22;16.50;;;9.40;;
81150;SDS011;70629;-26.026;27.976;2023-06-19T03:27:51;10.70;;;8.15;;
81150;SDS011;70629;-26.026;27.976;2023-06-19T03:30:21;10.80;;;7.07;;
81150;SDS011;70629;-26.026;27.976;2023-06-19T03:32:50;9.82;;;7.68;;
81150;SDS011;70629;-26.026;27.976;2023-06-19T03:35:19;12.95;;;7.80;;
81150;SDS011;70629;-26.026;27.976;2023-06-19T03:37:48;12.05;;;8.25;;
81150;SDS011;70629;-26.026;27.976;2023-06-19T03:40:17;12.38;;;8.63;;
81150;SDS011;70629;-26.026;27.976;2023-06-19T03:42:46;16.27;;;8.52;;
81150;SDS011;70629;-26.026;27.976;2023-06-19T03:45:16;13.75;;;9.75;;
81150;SDS011;70629;-26.026;27.976;2023-06-19T03:47:45;15.95;;;10.82;;
81150;SDS011;70629;-26.026;27.976;2023-06-19T03:50:14;13.55;;;11.45;;
81150;SDS011;70629;-26.026;27.976;2023-06-19T03:52:48;21.38;;;12.77;;
81150;SDS011;70629;-26.026;27.976;2023-06-19T03:55:17;17.23;;;12.00;;
81150;SDS011;70629;-26.026;27.976;2023-06-19T03:57:47;17.00;;;11.50;;
81150;SDS011;70629;-26.026;27.976;2023-06-19T04:00:16;17.15;;;11.70;;
81150;SDS011;70629;-26.026;27.976;2023-06-19T04:02:46;18.88;;;11.77;;
81150;SDS011;70629;-26.026;27.976;2023-06-19T04:05:16;14.52;;;10.93;;
81150;SDS011;70629;-26.026;27.976;2023-06-19T04:07:45;17.35;;;10.38;;
81150;SDS011;70629;-26.026;27.976;2023-06-19T04:10:15;17.92;;;10.65;;
81150;SDS011;70629;-26.026;27.976;2023-06-19T04:12:44;11.32;;;8.48;;
81150;SDS011;70629;-26.026;27.976;2023-06-19T04:15:14;13.55;;;9.10;;
81150;SDS011;70629;-26.026;27.976;2023-06-19T04:17:43;14.32;;;9.15;;
81150;SDS011;70629;-26.026;27.976;2023-06-19T04:20:12;14.90;;;9.60;;
81150;SDS011;70629;-26.026;27.976;2023-06-19T04:22:42;14.25;;;8.48;;
81150;SDS011;70629;-26.026;27.976;2023-06-19T04:25:11;11.68;;;7.85;;
81150;SDS011;70629;-26.026;27.976;2023-06-19T04:27:40;11.93;;;8.32;;
81150;SDS011;70629;-26.026;27.976;2023-06-19T04:30:12;13.65;;;8.95;;
81150;SDS011;70629;-26.026;27.976;2023-06-19T04:32:42;14.55;;;9.07;;
81150;SDS011;70629;-26.026;27.976;2023-06-19T04:35:11;19.13;;;10.18;;
81150;SDS011;70629;-26.026;27.976;2023-06-19T04:37:40;15.02;;;9.50;;
81150;SDS011;70629;-26.026;27.976;2023-06-19T04:40:09;20.98;;;10.90;;
81150;SDS011;70629;-26.026;27.976;2023-06-19T04:42:39;15.32;;;10.18;;
81150;SDS011;70629;-26.026;27.976;2023-06-19T04:45:08;13.38;;;9.55;;
81150;SDS011;70629;-26.026;27.976;2023-06-19T04:47:37;13.82;;;9.35;;
81150;SDS011;70629;-26.026;27.976;2023-06-19T04:50:23;15.30;;;9.90;;
81150;SDS011;70629;-26.026;27.976;2023-06-19T04:52:53;16.73;;;9.35;;
81150;SDS011;70629;-26.026;27.976;2023-06-19T04:55:22;13.90;;;8.77;;
81150;SDS011;70629;-26.026;27.976;2023-06-19T04:57:54;12.82;;;8.88;;
81150;SDS011;70629;-26.026;27.976;2023-06-19T05:00:23;12.23;;;8.95;;
81150;SDS011;70629;-26.026;27.976;2023-06-19T05:02:52;13.10;;;9.05;;
81150;SDS011;70629;-26.026;27.976;2023-06-19T05:05:22;16.27;;;9.93;;
81150;SDS011;70629;-26.026;27.976;2023-06-19T05:07:51;14.13;;;9.07;;
81150;SDS011;70629;-26.026;27.976;2023-06-19T05:10:20;14.77;;;10.07;;
81150;SDS011;70629;-26.026;27.976;2023-06-19T05:12:50;11.55;;;9.00;;
81150;SDS011;70629;-26.026;27.976;2023-06-19T05:15:19;20.85;;;10.63;;
81150;SDS011;70629;-26.026;27.976;2023-06-19T05:17:48;16.45;;;10.90;;
81150;SDS011;70629;-26.026;27.976;2023-06-19T05:20:17;15.35;;;10.63;;
81150;SDS011;70629;-26.026;27.976;2023-06-19T05:22:46;16.75;;;11.25;;
81150;SDS011;70629;-26.026;27.976;2023-06-19T05:25:15;20.13;;;10.95;;
81150;SDS011;70629;-26.026;27.976;2023-06-19T05:27:44;20.33;;;11.05;;
81150;SDS011;70629;-26.026;27.976;2023-06-19T05:30:13;28.98;;;12.18;;
81150;SDS011;70629;-26.026;27.976;2023-06-19T05:32:43;18.00;;;10.85;;
81150;SDS011;70629;-26.026;27.976;2023-06-19T05:35:12;17.00;;;11.45;;
81150;SDS011;70629;-26.026;27.976;2023-06-19T05:37:43;17.67;;;12.23;;
81150;SDS011;70629;-26.026;27.976;2023-06-19T05:40:12;19.05;;;12.10;;
81150;SDS011;70629;-26.026;27.976;2023-06-19T05:42:42;15.57;;;10.32;;
81150;SDS011;70629;-26.026;27.976;2023-06-19T05:45:11;14.10;;;9.73;;
81150;SDS011;70629;-26.026;27.976;2023-06-19T05:47:40;17.45;;;10.35;;
81150;SDS011;70629;-26.026;27.976;2023-06-19T05:50:09;16.42;;;10.05;;
81150;SDS011;70629;-26.026;27.976;2023-06-19T05:52:38;16.08;;;9.93;;
81150;SDS011;70629;-26.026;27.976;2023-06-19T05:55:11;15.85;;;9.57;;
81150;SDS011;70629;-26.026;27.976;2023-06-19T05:57:40;16.80;;;11.00;;
81150;SDS011;70629;-26.026;27.976;2023-06-19T06:00:09;12.98;;;10.52;;
81150;SDS011;70629;-26.026;27.976;2023-06-19T06:02:42;16.63;;;9.88;;
81150;SDS011;70629;-26.026;27.976;2023-06-19T06:05:11;18.30;;;11.23;;
81150;SDS011;70629;-26.026;27.976;2023-06-19T06:07:40;17.25;;;11.50;;
81150;SDS011;70629;-26.026;27.976;2023-06-19T06:10:10;15.88;;;10.55;;
81150;SDS011;70629;-26.026;27.976;2023-06-19T06:12:39;13.23;;;10.35;;
81150;SDS011;70629;-26.026;27.976;2023-06-19T06:15:08;19.95;;;11.45;;
81150;SDS011;70629;-26.026;27.976;2023-06-19T06:17:38;15.55;;;10.70;;
81150;SDS011;70629;-26.026;27.976;2023-06-19T06:20:07;17.02;;;11.55;;
81150;SDS011;70629;-26.026;27.976;2023-06-19T06:22:41;16.25;;;11.25;;
81150;SDS011;70629;-26.026;27.976;2023-06-19T06:25:10;19.13;;;12.20;;
81150;SDS011;70629;-26.026;27.976;2023-06-19T06:27:40;13.13;;;11.20;;
81150;SDS011;70629;-26.026;27.976;2023-06-19T06:30:10;15.32;;;12.15;;
81150;SDS011;70629;-26.026;27.976;2023-06-19T06:32:40;21.08;;;12.27;;
81150;SDS011;70629;-26.026;27.976;2023-06-19T06:35:09;17.52;;;13.15;;
81150;SDS011;70629;-26.026;27.976;2023-06-19T06:37:38;20.98;;;13.40;;
81150;SDS011;70629;-26.026;27.976;2023-06-19T06:40:08;17.65;;;12.07;;
81150;SDS011;70629;-26.026;27.976;2023-06-19T06:42:38;17.45;;;12.50;;
81150;SDS011;70629;-26.026;27.976;2023-06-19T06:45:08;16.98;;;12.25;;
81150;SDS011;70629;-26.026;27.976;2023-06-19T06:47:37;22.92;;;13.43;;
81150;SDS011;70629;-26.026;27.976;2023-06-19T06:50:08;23.98;;;13.85;;
81150;SDS011;70629;-26.026;27.976;2023-06-19T06:52:38;20.67;;;13.73;;
81150;SDS011;70629;-26.026;27.976;2023-06-19T06:55:07;19.80;;;13.80;;
81150;SDS011;70629;-26.026;27.976;2023-06-19T06:57:36;21.88;;;14.77;;
81150;SDS011;70629;-26.026;27.976;2023-06-19T07:00:06;22.27;;;15.32;;
81150;SDS011;70629;-26.026;27.976;2023-06-19T07:02:39;23.13;;;16.80;;
81150;SDS011;70629;-26.026;27.976;2023-06-19T07:05:08;23.05;;;15.68;;
81150;SDS011;70629;-26.026;27.976;2023-06-19T07:07:38;21.75;;;15.30;;
81150;SDS011;70629;-26.026;27.976;2023-06-19T07:10:07;22.48;;;15.77;;
81150;SDS011;70629;-26.026;27.976;2023-06-19T07:12:44;21.88;;;15.95;;
81150;SDS011;70629;-26.026;27.976;2023-06-19T07:15:14;24.98;;;15.80;;
81150;SDS011;70629;-26.026;27.976;2023-06-19T07:17:44;22.77;;;17.13;;
81150;SDS011;70629;-26.026;27.976;2023-06-19T07:20:14;25.17;;;16.58;;
81150;SDS011;70629;-26.026;27.976;2023-06-19T07:22:43;26.20;;;18.02;;
81150;SDS011;70629;-26.026;27.976;2023-06-19T07:25:14;21.85;;;15.05;;
81150;SDS011;70629;-26.026;27.976;2023-06-19T07:27:43;26.88;;;14.65;;
81150;SDS011;70629;-26.026;27.976;2023-06-19T07:30:12;23.25;;;15.50;;
81150;SDS011;70629;-26.026;27.976;2023-06-19T07:32:46;25.52;;;13.73;;
81150;SDS011;70629;-26.026;27.976;2023-06-19T07:35:16;17.30;;;14.65;;
81150;SDS011;70629;-26.026;27.976;2023-06-19T07:37:45;20.45;;;13.55;;
81150;SDS011;70629;-26.026;27.976;2023-06-19T07:40:15;17.65;;;14.00;;
81150;SDS011;70629;-26.026;27.976;2023-06-19T07:42:44;20.02;;;13.10;;
81150;SDS011;70629;-26.026;27.976;2023-06-19T07:45:13;18.33;;;12.77;;
81150;SDS011;70629;-26.026;27.976;2023-06-19T07:47:42;16.83;;;11.73;;
81150;SDS011;70629;-26.026;27.976;2023-06-19T07:50:11;16.58;;;12.15;;
81150;SDS011;70629;-26.026;27.976;2023-06-19T07:52:41;13.75;;;10.10;;
81150;SDS011;70629;-26.026;27.976;2023-06-19T07:55:10;13.07;;;9.95;;
81150;SDS011;70629;-26.026;27.976;2023-06-19T07:57:39;12.73;;;10.02;;
81150;SDS011;70629;-26.026;27.976;2023-06-19T08:00:08;17.65;;;12.05;;
81150;SDS011;70629;-26.026;27.976;2023-06-19T08:02:41;14.60;;;11.15;;
81150;SDS011;70629;-26.026;27.976;2023-06-19T08:05:10;14.13;;;11.82;;
81150;SDS011;70629;-26.026;27.976;2023-06-19T08:07:40;18.98;;;13.45;;
81150;SDS011;70629;-26.026;27.976;2023-06-19T08:10:09;18.23;;;14.07;;
81150;SDS011;70629;-26.026;27.976;2023-06-19T08:12:54;21.67;;;14.95;;
81150;SDS011;70629;-26.026;27.976;2023-06-19T08:15:23;18.45;;;13.07;;
81150;SDS011;70629;-26.026;27.976;2023-06-19T08:17:52;20.77;;;14.52;;
81150;SDS011;70629;-26.026;27.976;2023-06-19T08:20:21;21.70;;;14.30;;
81150;SDS011;70629;-26.026;27.976;2023-06-19T08:22:51;22.67;;;13.88;;
81150;SDS011;70629;-26.026;27.976;2023-06-19T08:25:20;15.68;;;13.40;;
81150;SDS011;70629;-26.026;27.976;2023-06-19T08:27:49;17.42;;;12.45;;
81150;SDS011;70629;-26.026;27.976;2023-06-19T08:30:18;16.08;;;12.95;;
81150;SDS011;70629;-26.026;27.976;2023-06-19T08:32:48;17.08;;;12.60;;
81150;SDS011;70629;-26.026;27.976;2023-06-19T08:35:17;19.40;;;12.48;;
81150;SDS011;70629;-26.026;27.976;2023-06-19T08:37:46;19.42;;;13.63;;
81150;SDS011;70629;-26.026;27.976;2023-06-19T08:40:16;21.20;;;12.15;;
81150;SDS011;70629;-26.026;27.976;2023-06-19T08:42:45;21.45;;;12.43;;
81150;SDS011;70629;-26.026;27.976;2023-06-19T08:45:14;21.05;;;13.05;;
81150;SDS011;70629;-26.026;27.976;2023-06-19T08:47:44;18.83;;;12.07;;
81150;SDS011;70629;-26.026;27.976;2023-06-19T08:50:15;17.00;;;11.93;;
81150;SDS011;70629;-26.026;27.976;2023-06-19T08:52:44;17.83;;;12.20;;
81150;SDS011;70629;-26.026;27.976;2023-06-19T08:55:14;20.30;;;13.20;;
81150;SDS011;70629;-26.026;27.976;2023-06-19T08:57:43;20.95;;;13.57;;
81150;SDS011;70629;-26.026;27.976;2023-06-19T09:00:12;20.50;;;13.55;;
81150;SDS011;70629;-26.026;27.976;2023-06-19T09:03:02;18.08;;;13.63;;
81150;SDS011;70629;-26.026;27.976;2023-06-19T09:05:41;17.02;;;13.27;;
81150;SDS011;70629;-26.026;27.976;2023-06-19T09:08:19;26.77;;;14.07;;
81150;SDS011;70629;-26.026;27.976;2023-06-19T09:10:58;19.23;;;12.73;;
81150;SDS011;70629;-26.026;27.976;2023-06-19T09:13:34;18.45;;;12.15;;
81150;SDS011;70629;-26.026;27.976;2023-06-19T09:16:04;17.77;;;9.88;;
81150;SDS011;70629;-26.026;27.976;2023-06-19T09:18:46;11.13;;;7.82;;
81150;SDS011;70629;-26.026;27.976;2023-06-19T09:21:20;14.68;;;7.57;;
81150;SDS011;70629;-26.026;27.976;2023-06-19T09:26:21;12.98;;;9.32;;
81150;SDS011;70629;-26.026;27.976;2023-06-19T09:28:51;12.65;;;8.25;;
81150;SDS011;70629;-26.026;27.976;2023-06-19T09:31:20;20.10;;;13.07;;
81150;SDS011;70629;-26.026;27.976;2023-06-19T09:33:59;17.67;;;8.07;;
81150;SDS011;70629;-26.026;27.976;2023-06-19T09:36:29;10.43;;;7.55;;
81150;SDS011;70629;-26.026;27.976;2023-06-19T09:39:04;12.27;;;7.22;;
81150;SDS011;70629;-26.026;27.976;2023-06-19T09:41:34;11.82;;;6.32;;
81150;SDS011;70629;-26.026;27.976;2023-06-19T09:44:05;11.55;;;6.95;;
81150;SDS011;70629;-26.026;27.976;2023-06-19T09:46:40;12.10;;;7.82;;
81150;SDS011;70629;-26.026;27.976;2023-06-19T09:49:13;9.90;;;7.18;;
81150;SDS011;70629;-26.026;27.976;2023-06-19T09:51:46;11.57;;;7.60;;
81150;SDS011;70629;-26.026;27.976;2023-06-19T09:54:16;11.63;;;8.07;;
81150;SDS011;70629;-26.026;27.976;2023-06-19T09:56:49;11.57;;;7.45;;
81150;SDS011;70629;-26.026;27.976;2023-06-19T09:59:23;13.15;;;7.63;;
81150;SDS011;70629;-26.026;27.976;2023-06-19T10:01:53;15.02;;;7.32;;
81150;SDS011;70629;-26.026;27.976;2023-06-19T10:04:23;10.48;;;6.53;;
81150;SDS011;70629;-26.026;27.976;2023-06-19T10:06:52;6.82;;;5.50;;
81150;SDS011;70629;-26.026;27.976;2023-06-19T10:09:25;10.18;;;6.43;;
81150;SDS011;70629;-26.026;27.976;2023-06-19T10:12:01;8.27;;;5.18;;
81150;SDS011;70629;-26.026;27.976;2023-06-19T10:14:47;14.55;;;10.00;;
81150;SDS011;70629;-26.026;27.976;2023-06-19T10:17:17;23.98;;;15.27;;
81150;SDS011;70629;-26.026;27.976;2023-06-19T10:19:51;13.57;;;10.27;;
81150;SDS011;70629;-26.026;27.976;2023-06-19T10:22:24;14.45;;;6.93;;
81150;SDS011;70629;-26.026;27.976;2023-06-19T10:25:02;21.80;;;12.73;;
81150;SDS011;70629;-26.026;27.976;2023-06-19T10:27:34;11.68;;;8.35;;
81150;SDS011;70629;-26.026;27.976;2023-06-19T10:33:19;17.67;;;12.48;;
81150;SDS011;70629;-26.026;27.976;2023-06-19T10:36:15;12.88;;;8.80;;
81150;SDS011;70629;-26.026;27.976;2023-06-19T10:38:50;12.77;;;8.27;;
81150;SDS011;70629;-26.026;27.976;2023-06-19T10:41:22;11.82;;;9.57;;
81150;SDS011;70629;-26.026;27.976;2023-06-19T10:44:01;21.52;;;10.48;;
81150;SDS011;70629;-26.026;27.976;2023-06-19T10:46:33;18.92;;;12.40;;
81150;SDS011;70629;-26.026;27.976;2023-06-19T10:49:06;12.80;;;9.10;;
81150;SDS011;70629;-26.026;27.976;2023-06-19T10:51:39;10.35;;;8.35;;
81150;SDS011;70629;-26.026;27.976;2023-06-19T10:54:14;16.60;;;11.88;;
81150;SDS011;70629;-26.026;27.976;2023-06-19T10:56:43;14.82;;;9.20;;
81150;SDS011;70629;-26.026;27.976;2023-06-19T10:59:12;16.83;;;10.45;;
81150;SDS011;70629;-26.026;27.976;2023-06-19T11:01:42;20.55;;;10.65;;
81150;SDS011;70629;-26.026;27.976;2023-06-19T11:04:15;16.23;;;9.77;;
81150;SDS011;70629;-26.026;27.976;2023-06-19T11:06:44;12.77;;;8.95;;
81150;SDS011;70629;-26.026;27.976;2023-06-19T11:09:15;12.98;;;8.18;;
81150;SDS011;70629;-26.026;27.976;2023-06-19T11:11:45;13.85;;;8.52;;
81150;SDS011;70629;-26.026;27.976;2023-06-19T11:14:15;16.27;;;9.50;;
81150;SDS011;70629;-26.026;27.976;2023-06-19T11:16:46;13.15;;;9.00;;
81150;SDS011;70629;-26.026;27.976;2023-06-19T11:19:17;20.98;;;10.43;;
81150;SDS011;70629;-26.026;27.976;2023-06-19T11:21:49;16.40;;;9.40;;
81150;SDS011;70629;-26.026;27.976;2023-06-19T11:24:19;15.30;;;10.27;;
81150;SDS011;70629;-26.026;27.976;2023-06-19T11:26:52;15.43;;;10.50;;
81150;SDS011;70629;-26.026;27.976;2023-06-19T11:32:06;15.27;;;9.85;;
81150;SDS011;70629;-26.026;27.976;2023-06-19T11:34:35;13.77;;;9.80;;
81150;SDS011;70629;-26.026;27.976;2023-06-19T11:37:14;13.35;;;8.88;;
81150;SDS011;70629;-26.026;27.976;2023-06-19T11:39:51;15.57;;;10.07;;
81150;SDS011;70629;-26.026;27.976;2023-06-19T11:42:20;15.38;;;10.38;;
81150;SDS011;70629;-26.026;27.976;2023-06-19T11:44:53;13.82;;;10.38;;
81150;SDS011;70629;-26.026;27.976;2023-06-19T11:47:34;15.10;;;10.23;;
81150;SDS011;70629;-26.026;27.976;2023-06-19T11:50:04;19.38;;;12.48;;
81150;SDS011;70629;-26.026;27.976;2023-06-19T11:52:35;16.55;;;11.23;;
81150;SDS011;70629;-26.026;27.976;2023-06-19T11:55:04;16.92;;;11.63;;
81150;SDS011;70629;-26.026;27.976;2023-06-19T11:57:34;15.15;;;10.85;;
81150;SDS011;70629;-26.026;27.976;2023-06-19T12:00:03;14.98;;;9.77;;
81150;SDS011;70629;-26.026;27.976;2023-06-19T12:02:41;16.23;;;9.88;;
81150;SDS011;70629;-26.026;27.976;2023-06-19T12:07:42;14.82;;;9.43;;
81150;SDS011;70629;-26.026;27.976;2023-06-19T12:10:12;13.07;;;10.05;;
81150;SDS011;70629;-26.026;27.976;2023-06-19T12:12:41;19.38;;;10.73;;
81150;SDS011;70629;-26.026;27.976;2023-06-19T12:15:14;18.67;;;11.57;;
81150;SDS011;70629;-26.026;27.976;2023-06-19T12:17:43;15.73;;;9.68;;
81150;SDS011;70629;-26.026;27.976;2023-06-19T12:20:13;16.02;;;9.65;;
81150;SDS011;70629;-26.026;27.976;2023-06-19T12:22:43;15.32;;;10.27;;
81150;SDS011;70629;-26.026;27.976;2023-06-19T12:25:12;16.50;;;11.30;;
81150;SDS011;70629;-26.026;27.976;2023-06-19T12:27:41;11.82;;;9.68;;
81150;SDS011;70629;-26.026;27.976;2023-06-19T12:30:11;14.38;;;9.48;;
81150;SDS011;70629;-26.026;27.976;2023-06-19T12:32:40;13.93;;;10.65;;
81150;SDS011;70629;-26.026;27.976;2023-06-19T12:35:09;15.82;;;10.68;;
81150;SDS011;70629;-26.026;27.976;2023-06-19T12:37:39;13.50;;;10.57;;
81150;SDS011;70629;-26.026;27.976;2023-06-19T12:40:08;15.30;;;10.55;;
81150;SDS011;70629;-26.026;27.976;2023-06-19T12:42:39;15.80;;;11.48;;
81150;SDS011;70629;-26.026;27.976;2023-06-19T12:45:09;14.38;;;10.43;;
81150;SDS011;70629;-26.026;27.976;2023-06-19T12:47:39;14.55;;;10.15;;
81150;SDS011;70629;-26.026;27.976;2023-06-19T12:50:09;13.10;;;9.88;;
81150;SDS011;70629;-26.026;27.976;2023-06-19T12:52:39;16.65;;;10.48;;
81150;SDS011;70629;-26.026;27.976;2023-06-19T12:55:08;13.57;;;9.90;;
81150;SDS011;70629;-26.026;27.976;2023-06-19T12:57:37;13.95;;;10.63;;
81150;SDS011;70629;-26.026;27.976;2023-06-19T13:00:10;16.13;;;10.13;;
81150;SDS011;70629;-26.026;27.976;2023-06-19T13:02:40;15.55;;;10.25;;
81150;SDS011;70629;-26.026;27.976;2023-06-19T13:05:11;14.63;;;10.73;;
81150;SDS011;70629;-26.026;27.976;2023-06-19T13:07:41;14.70;;;11.77;;
81150;SDS011;70629;-26.026;27.976;2023-06-19T13:10:10;13.10;;;11.13;;
81150;SDS011;70629;-26.026;27.976;2023-06-19T13:12:39;18.05;;;11.23;;
81150;SDS011;70629;-26.026;27.976;2023-06-19T13:15:14;18.35;;;11.35;;
81150;SDS011;70629;-26.026;27.976;2023-06-19T13:17:47;15.82;;;10.27;;
81150;SDS011;70629;-26.026;27.976;2023-06-19T13:20:19;14.07;;;10.80;;
81150;SDS011;70629;-26.026;27.976;2023-06-19T13:22:49;15.63;;;11.93;;
81150;SDS011;70629;-26.026;27.976;2023-06-19T13:25:19;13.43;;;10.75;;
81150;SDS011;70629;-26.026;27.976;2023-06-19T13:27:48;16.25;;;11.88;;
81150;SDS011;70629;-26.026;27.976;2023-06-19T13:30:18;16.05;;;10.30;;
81150;SDS011;70629;-26.026;27.976;2023-06-19T13:32:47;13.50;;;10.88;;
81150;SDS011;70629;-26.026;27.976;2023-06-19T13:35:16;14.48;;;10.57;;
81150;SDS011;70629;-26.026;27.976;2023-06-19T13:37:45;14.20;;;9.32;;
81150;SDS011;70629;-26.026;27.976;2023-06-19T13:40:14;15.88;;;10.15;;
81150;SDS011;70629;-26.026;27.976;2023-06-19T13:42:43;13.25;;;9.93;;
81150;SDS011;70629;-26.026;27.976;2023-06-19T13:45:13;18.33;;;11.70;;
81150;SDS011;70629;-26.026;27.976;2023-06-19T13:47:42;14.57;;;9.35;;
81150;SDS011;70629;-26.026;27.976;2023-06-19T13:50:11;13.77;;;9.07;;
81150;SDS011;70629;-26.026;27.976;2023-06-19T13:52:46;16.23;;;10.20;;
81150;SDS011;70629;-26.026;27.976;2023-06-19T13:55:15;10.32;;;8.57;;
81150;SDS011;70629;-26.026;27.976;2023-06-19T13:57:47;22.08;;;10.77;;
81150;SDS011;70629;-26.026;27.976;2023-06-19T14:00:17;28.92;;;11.65;;
81150;SDS011;70629;-26.026;27.976;2023-06-19T14:02:46;13.95;;;10.13;;
81150;SDS011;70629;-26.026;27.976;2023-06-19T14:05:15;12.98;;;9.75;;
81150;SDS011;70629;-26.026;27.976;2023-06-19T14:07:44;17.05;;;10.05;;
81150;SDS011;70629;-26.026;27.976;2023-06-19T14:10:13;13.95;;;9.15;;
81150;SDS011;70629;-26.026;27.976;2023-06-19T14:12:42;18.20;;;9.80;;
81150;SDS011;70629;-26.026;27.976;2023-06-19T14:15:12;13.70;;;9.73;;
81150;SDS011;70629;-26.026;27.976;2023-06-19T14:17:41;12.43;;;9.32;;
81150;SDS011;70629;-26.026;27.976;2023-06-19T14:20:10;11.77;;;9.50;;
81150;SDS011;70629;-26.026;27.976;2023-06-19T14:22:40;12.13;;;9.32;;
81150;SDS011;70629;-26.026;27.976;2023-06-19T14:25:09;15.38;;;10.00;;
81150;SDS011;70629;-26.026;27.976;2023-06-19T14:27:38;15.15;;;9.68;;
81150;SDS011;70629;-26.026;27.976;2023-06-19T14:30:07;14.13;;;10.32;;
81150;SDS011;70629;-26.026;27.976;2023-06-19T14:32:37;14.40;;;9.60;;
81150;SDS011;70629;-26.026;27.976;2023-06-19T14:35:06;14.43;;;10.10;;